Terminal Aerodrome Forecast
Issued by NWS

Home | Current Version | Previous Version | Text Only | Print | Product List | Glossary On
Versions: 1 2 3 4 5 6 7 8 9 10 11 12 13
814
FTUS46 KLOX 281723
TAFLGB
TAF
KLGB 281723Z 2818/2918 19007KT P6SM SKC
     FM282300 30009KT P6SM SKC
     FM290400 VRB03KT P6SM SKC
     FM291100 VRB03KT P6SM BKN007
     FM291600 VRB03KT P6SM SKC=

USA.gov is the U.S. government's official web portal to all federal, state and local government web resources and services.